Time;durP1;ratioP1;P1;durP2;ratioP2;P2;SDS_P1;SDS_P2;PMS_P1;PMS_P2;Temp;Humidity;BMP_temperature;BMP_pressure;BME280_temperature;BME280_humidity;BME280_pressure;Samples;Min_cycle;Max_cycle;Signal;HPM_P1;HPM_P2
2021/03/29 00:02:02;;;;;;;8.40;4.33;;;3.90;99.90;;;;;;5056455;28;20551;-66
2021/03/29 00:04:31;;;;;;;8.93;4.20;;;3.80;99.90;;;;;;5039369;28;20470;-67
2021/03/29 00:07:01;;;;;;;6.73;4.00;;;3.70;99.90;;;;;;5058722;28;20422;-66
2021/03/29 00:09:34;;;;;;;5.97;3.67;;;3.70;99.90;;;;;;5039173;28;20430;-66
2021/03/29 00:12:05;;;;;;;6.57;4.40;;;3.60;99.90;;;;;;5055882;28;20475;-66
2021/03/29 00:14:34;;;;;;;6.47;4.47;;;3.60;99.90;;;;;;5038603;28;20444;-66
2021/03/29 00:17:01;;;;;;;3.80;3.50;;;3.60;99.90;;;;;;5055285;28;20504;-66
2021/03/29 00:19:32;;;;;;;4.00;3.60;;;3.70;99.90;;;;;;5038410;28;20597;-65
2021/03/29 00:22:00;;;;;;;7.13;3.87;;;3.60;99.90;;;;;;5056079;28;20466;-66
2021/03/29 00:24:29;;;;;;;9.43;3.90;;;3.60;99.90;;;;;;5038226;28;20487;-66
2021/03/29 00:26:57;;;;;;;14.80;5.57;;;3.60;99.90;;;;;;5038318;28;20941;-69
2021/03/29 00:29:25;;;;;;;8.57;5.83;;;3.60;99.90;;;;;;5055885;28;20839;-68
2021/03/29 00:31:53;;;;;;;5.50;4.37;;;3.60;99.90;;;;;;5055035;28;20813;-67
2021/03/29 00:34:21;;;;;;;6.40;4.17;;;3.60;99.90;;;;;;5056122;28;20443;-66
2021/03/29 00:36:51;;;;;;;4.90;3.77;;;3.60;99.90;;;;;;5055763;28;20441;-67
2021/03/29 00:39:22;;;;;;;12.70;5.13;;;3.50;99.90;;;;;;5055780;28;20429;-66
2021/03/29 00:41:50;;;;;;;13.20;5.23;;;3.50;99.90;;;;;;5055658;28;20493;-66
2021/03/29 00:44:19;;;;;;;6.57;4.30;;;3.40;99.90;;;;;;5037995;28;20427;-66
2021/03/29 00:46:48;;;;;;;6.90;4.13;;;3.40;99.90;;;;;;5055021;28;20820;-66
2021/03/29 00:49:16;;;;;;;5.27;4.77;;;3.40;99.90;;;;;;5055812;28;20433;-66
2021/03/29 00:51:49;;;;;;;6.03;4.33;;;3.40;99.90;;;;;;5037799;28;20471;-66
2021/03/29 00:54:18;;;;;;;3.93;3.57;;;3.40;99.90;;;;;;5056122;28;20438;-66
2021/03/29 00:56:46;;;;;;;8.00;4.63;;;3.40;99.90;;;;;;5055996;28;20484;-66
2021/03/29 00:59:14;;;;;;;5.57;4.40;;;3.40;99.90;;;;;;5055352;28;20950;-67
2021/03/29 01:01:46;;;;;;;6.03;5.00;;;3.30;99.90;;;;;;5050767;28;20463;-67
2021/03/29 01:04:15;;;;;;;9.10;4.30;;;3.30;99.90;;;;;;5074834;28;20497;-67
2021/03/29 01:06:44;;;;;;;6.90;3.67;;;3.30;99.90;;;;;;5057443;28;20441;-66
2021/03/29 01:09:17;;;;;;;7.17;4.63;;;3.20;99.90;;;;;;5057323;28;20430;-66
2021/03/29 01:11:51;;;;;;;6.50;4.37;;;3.30;99.90;;;;;;5074596;28;20445;-67
2021/03/29 01:14:24;;;;;;;8.00;4.20;;;3.20;99.90;;;;;;5075128;28;20430;-66
2021/03/29 01:16:58;;;;;;;4.50;3.63;;;3.30;99.90;;;;;;5074994;28;20841;-68
2021/03/29 01:19:41;;;;;;;7.27;4.20;;;3.30;99.90;;;;;;5057130;28;20749;-69
2021/03/29 01:22:10;;;;;;;3.53;3.23;;;3.40;99.90;;;;;;5040597;28;20972;-67
2021/03/29 01:24:47;;;;;;;5.10;3.87;;;3.40;99.90;;;;;;5074798;28;20440;-67
2021/03/29 01:27:19;;;;;;;5.10;4.43;;;3.40;99.90;;;;;;5075173;28;20732;-66
2021/03/29 01:29:54;;;;;;;5.27;3.97;;;3.50;99.90;;;;;;5057217;28;20422;-68
2021/03/29 01:32:23;;;;;;;5.47;3.53;;;3.40;99.90;;;;;;5075081;28;20413;-66
2021/03/29 01:34:52;;;;;;;7.23;4.43;;;3.40;99.90;;;;;;5074523;28;20438;-66
2021/03/29 01:37:20;;;;;;;8.50;4.10;;;3.40;99.90;;;;;;5056644;28;20441;-66
2021/03/29 01:39:50;;;;;;;7.03;3.67;;;3.40;99.90;;;;;;5074552;28;21035;-67
2021/03/29 01:42:19;;;;;;;6.10;3.90;;;3.40;99.90;;;;;;5056564;28;20491;-67
2021/03/29 01:44:48;;;;;;;7.40;4.30;;;3.40;99.90;;;;;;5074502;28;20940;-66
2021/03/29 01:47:17;;;;;;;3.97;3.67;;;3.40;99.90;;;;;;5056338;28;20426;-68
2021/03/29 01:49:44;;;;;;;4.80;4.23;;;3.40;99.90;;;;;;5074379;28;20438;-66
2021/03/29 01:52:13;;;;;;;4.77;3.53;;;3.40;99.90;;;;;;5074439;28;20529;-66
2021/03/29 01:54:41;;;;;;;5.97;3.80;;;3.40;99.90;;;;;;5074317;28;20761;-66
2021/03/29 01:57:11;;;;;;;7.03;3.60;;;3.30;99.90;;;;;;5056874;28;20956;-68
2021/03/29 01:59:40;;;;;;;4.03;3.63;;;3.30;99.90;;;;;;5074266;28;20516;-67
2021/03/29 02:02:11;;;;;;;4.93;3.63;;;3.30;99.90;;;;;;5055916;28;20532;-65
2021/03/29 02:04:39;;;;;;;4.77;3.33;;;3.30;99.90;;;;;;5073879;28;21031;-68
2021/03/29 02:07:08;;;;;;;6.57;4.17;;;3.30;99.90;;;;;;5073990;28;20941;-66
2021/03/29 02:09:36;;;;;;;5.20;3.40;;;3.20;99.90;;;;;;5056482;28;20434;-66
2021/03/29 02:12:06;;;;;;;5.83;3.80;;;3.20;99.90;;;;;;5074432;28;20527;-66
2021/03/29 02:14:35;;;;;;;7.53;3.90;;;3.20;99.90;;;;;;5079436;28;20502;-65
2021/03/29 02:17:07;;;;;;;6.77;4.70;;;3.20;99.90;;;;;;5088015;28;20453;-66
2021/03/29 02:20:01;;;;;;;8.90;4.07;;;3.20;99.90;;;;;;5076084;28;20430;-66
2021/03/29 02:22:31;;;;;;;5.87;3.80;;;3.20;99.90;;;;;;5074583;28;20548;-66
2021/03/29 02:24:59;;;;;;;5.97;4.13;;;3.20;99.90;;;;;;5075207;28;20434;-68
2021/03/29 02:27:26;;;;;;;4.73;3.60;;;3.20;99.90;;;;;;5075497;28;20441;-66
2021/03/29 02:29:54;;;;;;;4.83;3.50;;;3.30;99.90;;;;;;5075157;28;20775;-66
2021/03/29 02:32:23;;;;;;;4.40;3.73;;;3.40;99.90;;;;;;5057058;28;20434;-68
2021/03/29 02:34:54;;;;;;;5.67;5.10;;;3.40;99.90;;;;;;5075640;28;20837;-66
2021/03/29 02:37:22;;;;;;;6.10;4.17;;;3.50;99.90;;;;;;5040628;28;20438;-66
2021/03/29 02:39:50;;;;;;;4.10;3.60;;;3.60;99.90;;;;;;5074582;28;20824;-68
2021/03/29 02:42:17;;;;;;;4.93;4.43;;;3.60;99.90;;;;;;5076076;28;20469;-66
2021/03/29 02:44:45;;;;;;;9.03;5.50;;;3.60;99.90;;;;;;5074429;28;20420;-66
2021/03/29 02:47:13;;;;;;;7.93;3.60;;;3.60;99.90;;;;;;5074545;28;20815;-66
2021/03/29 02:49:44;;;;;;;4.53;3.60;;;3.60;99.90;;;;;;5075243;28;20436;-66
2021/03/29 02:52:12;;;;;;;5.10;3.70;;;3.70;99.90;;;;;;5076118;28;20426;-66
2021/03/29 02:54:41;;;;;;;4.60;3.90;;;3.70;99.90;;;;;;5074691;28;20512;-66
2021/03/29 02:57:09;;;;;;;7.20;3.87;;;3.80;99.90;;;;;;5076273;28;20964;-65
2021/03/29 03:00:06;;;;;;;3.97;3.57;;;3.80;99.90;;;;;;5074540;28;20468;-66
2021/03/29 03:02:34;;;;;;;5.90;3.30;;;3.80;99.90;;;;;;5056040;28;20469;-66
2021/03/29 03:05:05;;;;;;;6.03;4.47;;;3.80;99.90;;;;;;5074597;28;20804;-66
2021/03/29 03:07:32;;;;;;;3.87;3.47;;;3.80;99.90;;;;;;5056166;28;20459;-66
2021/03/29 03:10:00;;;;;;;5.00;4.43;;;3.80;99.90;;;;;;5056034;28;20809;-68
2021/03/29 03:12:28;;;;;;;5.67;3.93;;;3.80;99.90;;;;;;5074407;28;20433;-68
2021/03/29 03:14:57;;;;;;;6.00;3.70;;;3.80;99.90;;;;;;5074306;28;20429;-66
2021/03/29 03:17:26;;;;;;;7.67;3.80;;;3.70;99.90;;;;;;5073967;28;20434;-66
2021/03/29 03:19:54;;;;;;;3.93;2.93;;;3.70;99.90;;;;;;5073873;28;20949;-65
2021/03/29 03:22:23;;;;;;;6.90;3.73;;;3.70;99.90;;;;;;5039168;28;20470;-66
2021/03/29 03:24:51;;;;;;;5.43;3.10;;;3.70;99.90;;;;;;5055357;28;20430;-66
2021/03/29 03:27:18;;;;;;;15.87;6.33;;;3.70;99.90;;;;;;5074072;28;20433;-67
2021/03/29 03:32:40;;;;;;;11.13;3.77;;;3.60;99.90;;;;;;5055958;28;20789;-66
2021/03/29 03:35:10;;;;;;;6.80;3.67;;;3.60;99.90;;;;;;5076610;28;20506;-66
2021/03/29 03:37:42;;;;;;;8.67;4.73;;;3.60;99.90;;;;;;5059718;28;20430;-66
2021/03/29 03:40:11;;;;;;;14.03;5.43;;;3.50;99.90;;;;;;5064071;22;20884;-73
2021/03/29 03:42:40;;;;;;;8.23;5.83;;;3.50;99.90;;;;;;5025407;28;20493;-74
2021/03/29 03:45:09;;;;;;;7.63;4.20;;;3.50;99.90;;;;;;5041616;28;20514;-73
2021/03/29 03:47:39;;;;;;;7.37;4.87;;;3.40;99.90;;;;;;5043158;28;20439;-73
2021/03/29 03:50:11;;;;;;;7.57;5.07;;;3.40;99.90;;;;;;5024524;28;20431;-74
2021/03/29 03:52:41;;;;;;;10.13;3.93;;;3.40;99.90;;;;;;5025197;28;20434;-74
2021/03/29 03:55:10;;;;;;;6.73;5.07;;;3.30;99.90;;;;;;5042486;28;20439;-75
2021/03/29 03:57:40;;;;;;;9.00;4.70;;;3.40;99.90;;;;;;5008463;28;20469;-74
2021/03/29 04:00:10;;;;;;;16.40;4.73;;;3.30;99.90;;;;;;5039367;28;20446;-75
2021/03/29 04:02:39;;;;;;;6.13;3.73;;;3.30;99.90;;;;;;5043643;28;20573;-74
2021/03/29 04:05:12;;;;;;;6.77;3.90;;;3.30;99.90;;;;;;5029991;28;20422;-77
2021/03/29 04:08:01;;;;;;;4.10;3.70;;;3.20;99.90;;;;;;5029773;28;20537;-74
2021/03/29 04:10:37;;;;;;;6.33;3.50;;;3.20;99.90;;;;;;5027998;28;20484;-74
2021/03/29 04:13:11;;;;;;;8.43;4.03;;;3.10;99.90;;;;;;5046433;28;20949;-74
2021/03/29 04:15:39;;;;;;;7.40;4.30;;;3.10;99.90;;;;;;5012655;28;20553;-74
2021/03/29 04:18:07;;;;;;;4.77;3.70;;;3.10;99.90;;;;;;5012680;28;20446;-74
2021/03/29 04:23:30;;;;;;;11.87;5.83;;;3.00;99.90;;;;;;5032738;28;20458;-75
2021/03/29 04:25:59;;;;;;;6.73;3.90;;;3.00;99.90;;;;;;5046772;28;20467;-74
2021/03/29 04:28:26;;;;;;;7.70;4.13;;;2.90;99.90;;;;;;5029418;28;20435;-76
2021/03/29 04:30:55;;;;;;;10.40;5.13;;;2.90;99.90;;;;;;5047030;28;20451;-74
2021/03/29 04:33:23;;;;;;;8.00;4.40;;;2.90;99.90;;;;;;5029955;28;20435;-74
2021/03/29 04:35:52;;;;;;;4.73;3.53;;;2.80;99.90;;;;;;5045913;28;20442;-76
2021/03/29 04:38:20;;;;;;;6.43;4.53;;;2.80;99.90;;;;;;5044321;28;20455;-74
2021/03/29 04:40:50;;;;;;;4.60;3.60;;;2.80;99.90;;;;;;5044310;28;20851;-75
2021/03/29 04:43:17;;;;;;;7.47;3.97;;;2.80;99.90;;;;;;5028348;28;20462;-77
2021/03/29 04:45:46;;;;;;;7.83;3.90;;;2.70;99.90;;;;;;5046657;28;20427;-77
2021/03/29 04:48:14;;;;;;;8.87;4.90;;;2.70;99.90;;;;;;5047541;28;20958;-74
2021/03/29 04:50:42;;;;;;;12.87;6.27;;;2.70;99.90;;;;;;5046918;28;20460;-77
2021/03/29 04:53:10;;;;;;;9.73;5.30;;;2.60;99.90;;;;;;5042445;28;20439;-75
2021/03/29 04:55:38;;;;;;;5.40;3.87;;;2.70;99.90;;;;;;5038148;28;20477;-75
2021/03/29 04:58:06;;;;;;;5.27;4.37;;;2.70;99.90;;;;;;5021439;28;20825;-74
2021/03/29 05:00:34;;;;;;;6.03;4.07;;;2.70;99.90;;;;;;5020742;28;20447;-74
2021/03/29 05:03:02;;;;;;;12.87;4.07;;;2.70;99.90;;;;;;5020994;28;20463;-74
2021/03/29 05:05:30;;;;;;;6.00;4.13;;;2.70;99.90;;;;;;5038381;28;20424;-77
2021/03/29 05:07:57;;;;;;;8.47;3.97;;;2.70;99.90;;;;;;5020320;28;20799;-73
2021/03/29 05:10:25;;;;;;;13.67;5.03;;;2.60;99.90;;;;;;5038868;28;20435;-73
2021/03/29 05:12:55;;;;;;;8.90;4.40;;;2.60;99.90;;;;;;5037888;28;20443;-74
2021/03/29 05:15:25;;;;;;;5.70;4.20;;;2.70;99.90;;;;;;5038334;28;20458;-76
2021/03/29 05:17:52;;;;;;;7.47;4.17;;;2.70;99.90;;;;;;5037808;28;20515;-74
2021/03/29 05:20:20;;;;;;;6.30;3.83;;;2.80;99.90;;;;;;5020059;28;20431;-74
2021/03/29 05:22:47;;;;;;;5.93;4.07;;;2.80;99.90;;;;;;5019728;28;20470;-73
2021/03/29 05:25:16;;;;;;;9.17;5.60;;;2.90;99.90;;;;;;5036058;28;20526;-73
2021/03/29 05:27:43;;;;;;;9.07;4.43;;;3.00;99.90;;;;;;5037780;28;20436;-73
2021/03/29 05:30:14;;;;;;;5.20;4.13;;;3.20;99.90;;;;;;5037089;28;20957;-75
2021/03/29 05:32:44;;;;;;;12.77;3.90;;;3.30;99.90;;;;;;5037191;28;20790;-74
2021/03/29 05:35:12;;;;;;;6.57;5.00;;;3.50;99.90;;;;;;5003480;28;20444;-74
2021/03/29 05:37:40;;;;;;;10.40;4.40;;;3.70;99.90;;;;;;5037047;28;21040;-73
2021/03/29 05:40:10;;;;;;;5.90;3.80;;;3.80;99.90;;;;;;5019836;28;20503;-77
2021/03/29 05:42:38;;;;;;;7.73;3.93;;;4.00;99.90;;;;;;5036878;28;20975;-72
2021/03/29 05:45:08;;;;;;;11.23;3.80;;;4.30;99.90;;;;;;5002976;28;20486;-76
2021/03/29 05:47:36;;;;;;;5.83;4.07;;;4.70;99.90;;;;;;5036591;28;20438;-74
2021/03/29 05:50:07;;;;;;;10.23;3.30;;;5.20;99.90;;;;;;5037499;28;20428;-74
2021/03/29 05:52:36;;;;;;;6.90;3.40;;;5.70;99.90;;;;;;5002083;28;20436;-73
2021/03/29 05:55:04;;;;;;;5.70;2.97;;;6.10;99.90;;;;;;5036522;28;20458;-74
2021/03/29 05:57:40;;;;;;;5.53;4.97;;;6.50;99.90;;;;;;5036521;28;20493;-75
2021/03/29 06:00:36;;;;;;;4.70;3.47;;;6.90;99.90;;;;;;5002770;28;20435;-72
2021/03/29 06:03:30;;;;;;;15.07;4.93;;;7.60;99.90;;;;;;4995159;28;20476;-74
2021/03/29 06:06:01;;;;;;;5.67;3.50;;;8.10;99.90;;;;;;5019153;28;20822;-73
2021/03/29 06:08:30;;;;;;;13.13;4.67;;;8.30;99.90;;;;;;5018115;28;20423;-73
2021/03/29 06:11:00;;;;;;;12.70;3.43;;;8.80;99.90;;;;;;5018243;28;20430;-72
2021/03/29 06:13:29;;;;;;;10.70;5.00;;;9.50;99.20;;;;;;5035413;28;20800;-73
2021/03/29 06:16:04;;;;;;;4.63;3.47;;;9.70;97.90;;;;;;5034014;28;20439;-73
2021/03/29 06:18:32;;;;;;;2.80;2.60;;;10.20;96.10;;;;;;5000445;28;20445;-72
2021/03/29 06:24:00;;;;;;;3.63;2.80;;;9.20;97.90;;;;;;5034608;28;20498;-72
2021/03/29 06:26:30;;;;;;;4.80;2.73;;;8.50;99.30;;;;;;5016330;28;20469;-73
2021/03/29 06:28:59;;;;;;;6.50;3.30;;;7.90;99.90;;;;;;5034384;28;20951;-73
2021/03/29 06:31:31;;;;;;;6.10;3.20;;;7.60;99.90;;;;;;5037880;28;20448;-73
2021/03/29 06:34:00;;;;;;;5.23;2.90;;;7.40;99.90;;;;;;5021320;28;20525;-74
2021/03/29 06:36:31;;;;;;;3.67;3.07;;;7.40;99.90;;;;;;5000459;28;20423;-73
2021/03/29 06:39:13;;;;;;;5.00;3.03;;;7.40;99.90;;;;;;5017050;28;20420;-77
2021/03/29 06:41:42;;;;;;;4.57;3.27;;;8.20;99.90;;;;;;5034709;28;20424;-72
2021/03/29 06:44:24;;;;;;;5.90;3.90;;;9.30;99.90;;;;;;5016592;28;20473;-72
2021/03/29 06:47:04;;;;;;;10.90;3.87;;;10.60;96.60;;;;;;5016154;28;20909;-72
2021/03/29 06:49:44;;;;;;;5.13;3.20;;;12.20;93.10;;;;;;5016949;28;20449;-72
2021/03/29 06:52:34;;;;;;;6.97;3.40;;;13.70;89.40;;;;;;5015891;28;20436;-72
2021/03/29 06:55:20;;;;;;;7.67;2.83;;;14.40;82.40;;;;;;5011421;28;20443;-71
2021/03/29 06:58:00;;;;;;;7.30;3.00;;;16.60;77.60;;;;;;5036342;28;20433;-75
2021/03/29 07:00:29;;;;;;;5.93;2.60;;;18.20;69.00;;;;;;5019200;28;20474;-73
2021/03/29 07:03:01;;;;;;;9.13;3.20;;;17.30;62.10;;;;;;5035823;28;20470;-72
2021/03/29 07:05:30;;;;;;;6.70;2.97;;;19.90;57.80;;;;;;5003030;28;20576;-72
2021/03/29 07:08:01;;;;;;;5.90;3.00;;;18.20;55.30;;;;;;5036409;28;20445;-71
2021/03/29 07:10:34;;;;;;;4.97;3.53;;;19.00;54.20;;;;;;5002720;28;20447;-72
2021/03/29 07:13:02;;;;;;;7.43;3.47;;;19.80;54.40;;;;;;5019710;28;20435;-76
2021/03/29 07:15:31;;;;;;;7.03;3.20;;;17.20;54.10;;;;;;5020062;28;20427;-71
2021/03/29 07:18:00;;;;;;;5.70;3.07;;;16.00;59.70;;;;;;5020242;28;20840;-71
2021/03/29 07:20:27;;;;;;;4.50;3.43;;;15.80;63.20;;;;;;5019715;28;20419;-71
2021/03/29 07:22:55;;;;;;;6.67;3.20;;;15.40;62.60;;;;;;5037107;28;20555;-71
2021/03/29 07:25:30;;;;;;;5.20;2.50;;;14.00;65.60;;;;;;5037373;28;20513;-71
2021/03/29 07:28:00;;;;;;;3.40;2.40;;;14.70;67.10;;;;;;5019313;28;20439;-72
2021/03/29 07:30:45;;;;;;;5.30;3.00;;;14.60;66.80;;;;;;5018438;28;20793;-71
2021/03/29 07:33:14;;;;;;;5.83;3.00;;;14.60;67.30;;;;;;5017672;28;20479;-73
2021/03/29 07:35:48;;;;;;;7.83;3.07;;;14.70;67.10;;;;;;5017446;28;20466;-72
2021/03/29 07:38:53;;;;;;;3.80;2.33;;;14.30;67.60;;;;;;5035485;28;20910;-72
2021/03/29 07:41:22;;;;;;;6.00;3.30;;;14.60;67.30;;;;;;5018166;28;20472;-72
2021/03/29 07:44:11;;;;;;;4.73;2.80;;;14.80;68.20;;;;;;5017476;28;20546;-71
2021/03/29 07:46:41;;;;;;;6.93;3.47;;;15.30;67.10;;;;;;5035316;28;20520;-71
2021/03/29 07:49:46;;;;;;;3.40;2.53;;;15.50;66.20;;;;;;5036653;28;20477;-71
2021/03/29 07:52:29;;;;;;;5.07;3.30;;;16.50;63.30;;;;;;5035604;28;20444;-72
2021/03/29 07:54:58;;;;;;;4.83;2.90;;;18.50;59.90;;;;;;5036648;28;20605;-71
2021/03/29 07:58:00;;;;;;;4.27;3.30;;;16.70;58.40;;;;;;5019168;28;20514;-71
2021/03/29 08:00:59;;;;;;;4.27;3.80;;;17.00;59.00;;;;;;5036746;28;20506;-71
2021/03/29 08:03:38;;;;;;;8.90;4.80;;;16.60;62.50;;;;;;5036507;28;20865;-71
2021/03/29 08:06:07;;;;;;;4.83;2.83;;;17.80;60.20;;;;;;5037160;28;20435;-72
2021/03/29 08:08:39;;;;;;;6.53;3.23;;;18.30;58.80;;;;;;5037381;28;20455;-71
2021/03/29 08:11:10;;;;;;;4.73;3.13;;;18.70;58.00;;;;;;5019207;28;20434;-71
2021/03/29 08:13:40;;;;;;;5.63;3.30;;;19.50;56.40;;;;;;5019161;28;20526;-70
2021/03/29 08:16:10;;;;;;;8.63;2.80;;;20.60;53.70;;;;;;5002268;28;20447;-71
2021/03/29 08:19:09;;;;;;;6.47;3.33;;;20.80;52.70;;;;;;5002457;28;20439;-71
2021/03/29 08:21:52;;;;;;;6.33;2.50;;;20.60;52.00;;;;;;5040534;28;20447;-71
2021/03/29 08:24:22;;;;;;;7.10;3.40;;;18.20;55.30;;;;;;5006973;28;20459;-70
2021/03/29 08:26:51;;;;;;;7.17;3.37;;;19.00;55.20;;;;;;5040441;28;20439;-72
2021/03/29 08:29:30;;;;;;;4.20;3.37;;;19.50;54.50;;;;;;5006497;28;20455;-71
2021/03/29 08:32:14;;;;;;;5.43;3.03;;;19.10;52.10;;;;;;5039785;28;20431;-70
2021/03/29 08:34:53;;;;;;;9.53;3.20;;;21.60;51.60;;;;;;5040352;28;20453;-72
2021/03/29 08:37:27;;;;;;;4.67;2.77;;;23.60;45.70;;;;;;5006364;28;20439;-70
2021/03/29 08:39:56;;;;;;;4.93;3.40;;;22.00;47.20;;;;;;5022181;28;20490;-70
2021/03/29 08:42:26;;;;;;;4.23;2.80;;;25.60;44.30;;;;;;5040333;28;20444;-70
2021/03/29 08:44:55;;;;;;;8.10;3.17;;;26.90;38.90;;;;;;5021257;28;20474;-69
2021/03/29 08:47:25;;;;;;;6.03;2.60;;;24.60;39.20;;;;;;5039533;28;20439;-71
2021/03/29 08:49:55;;;;;;;3.50;2.50;;;26.40;38.50;;;;;;5021753;28;20529;-70
2021/03/29 08:52:24;;;;;;;5.13;3.13;;;28.00;36.60;;;;;;5020762;28;20943;-70
2021/03/29 08:54:57;;;;;;;5.93;2.93;;;25.00;37.90;;;;;;5004205;28;20451;-71
2021/03/29 08:57:29;;;;;;;4.33;2.30;;;27.10;36.20;;;;;;5038687;28;20454;-72
2021/03/29 08:59:59;;;;;;;6.10;2.70;;;25.30;37.90;;;;;;5021418;28;20462;-71
2021/03/29 09:02:28;;;;;;;5.07;2.57;;;23.00;40.70;;;;;;5037714;28;20601;-72
2021/03/29 09:05:01;;;;;;;4.77;2.60;;;25.30;37.80;;;;;;5020320;28;20482;-71
2021/03/29 09:07:31;;;;;;;3.00;2.30;;;24.20;40.60;;;;;;5037972;28;20431;-71
2021/03/29 09:10:00;;;;;;;5.33;2.90;;;26.80;37.30;;;;;;5037477;28;20441;-71
2021/03/29 09:12:32;;;;;;;4.47;2.50;;;25.50;35.80;;;;;;5020559;28;20446;-70
2021/03/29 09:15:03;;;;;;;5.50;2.57;;;23.90;40.30;;;;;;5019920;28;20443;-71
2021/03/29 09:17:32;;;;;;;3.93;2.63;;;26.40;37.40;;;;;;4999304;28;20483;-71
2021/03/29 09:20:01;;;;;;;3.53;2.17;;;26.80;35.10;;;;;;4999688;28;20432;-70
2021/03/29 09:22:32;;;;;;;5.60;2.37;;;25.90;37.30;;;;;;5016841;28;20439;-75
2021/03/29 09:25:01;;;;;;;3.33;2.57;;;28.70;33.70;;;;;;4998258;28;20592;-74
2021/03/29 09:27:41;;;;;;;5.40;2.23;;;29.30;31.20;;;;;;4998315;28;20455;-71
2021/03/29 09:30:12;;;;;;;2.73;1.93;;;29.40;30.50;;;;;;4998430;28;20443;-70
2021/03/29 09:32:44;;;;;;;3.93;2.07;;;29.90;31.30;;;;;;5016488;28;20482;-72
2021/03/29 09:35:13;;;;;;;6.60;2.00;;;31.10;28.70;;;;;;5033831;28;20466;-75
2021/03/29 09:37:48;;;;;;;4.37;2.77;;;29.10;29.00;;;;;;5035275;28;20486;-70
2021/03/29 09:40:18;;;;;;;3.60;1.93;;;30.10;29.30;;;;;;5016978;28;20480;-70
2021/03/29 09:42:49;;;;;;;4.77;2.83;;;30.90;29.10;;;;;;5033342;28;20435;-70
2021/03/29 09:45:25;;;;;;;9.23;2.10;;;29.60;29.90;;;;;;5033546;28;20428;-70
2021/03/29 09:48:05;;;;;;;3.40;2.40;;;31.60;28.00;;;;;;5017243;28;20489;-76
2021/03/29 09:50:34;;;;;;;3.67;2.00;;;31.70;27.60;;;;;;5017552;28;20439;-70
2021/03/29 09:53:13;;;;;;;5.90;2.70;;;29.60;28.50;;;;;;5035448;28;20988;-71
2021/03/29 09:55:44;;;;;;;4.63;2.43;;;29.60;28.50;;;;;;5001679;28;20443;-71
2021/03/29 09:58:20;;;;;;;3.03;2.17;;;27.70;29.80;;;;;;5036508;28;20428;-71
2021/03/29 10:00:49;;;;;;;4.47;3.20;;;28.10;30.30;;;;;;5035474;28;20471;-72
2021/03/29 10:03:18;;;;;;;3.40;2.77;;;28.30;30.50;;;;;;5018551;28;20471;-70
2021/03/29 10:05:47;;;;;;;3.00;2.10;;;28.10;31.10;;;;;;5018810;28;20500;-71
2021/03/29 10:08:26;;;;;;;2.50;1.93;;;28.10;30.50;;;;;;5018856;28;20438;-71
2021/03/29 10:11:06;;;;;;;4.80;2.40;;;28.00;31.00;;;;;;5036077;28;20794;-73
2021/03/29 10:13:38;;;;;;;2.43;1.90;;;26.80;30.90;;;;;;5034173;28;20446;-71
2021/03/29 10:16:22;;;;;;;7.33;2.53;;;27.30;31.40;;;;;;5034547;28;20485;-72
2021/03/29 10:19:11;;;;;;;4.00;2.10;;;27.90;29.90;;;;;;5035238;28;20518;-72
2021/03/29 10:22:06;;;;;;;3.60;2.10;;;27.70;29.80;;;;;;5017948;28;20451;-71
2021/03/29 10:24:35;;;;;;;5.73;1.60;;;28.40;29.60;;;;;;5018449;28;20470;-72
2021/03/29 10:27:05;;;;;;;3.80;2.17;;;27.60;29.60;;;;;;5036230;28;20439;-71
2021/03/29 10:29:37;;;;;;;4.33;2.67;;;26.50;30.20;;;;;;5018105;28;20436;-71
2021/03/29 10:32:12;;;;;;;4.83;2.30;;;27.20;30.00;;;;;;5018482;28;20467;-71
2021/03/29 10:34:41;;;;;;;5.43;2.20;;;24.30;32.80;;;;;;5036896;28;20469;-70
2021/03/29 10:37:19;;;;;;;4.90;2.03;;;24.80;33.70;;;;;;5019553;28;20486;-76
2021/03/29 10:40:13;;;;;;;4.90;2.37;;;26.20;32.70;;;;;;5018565;28;21085;-73
2021/03/29 10:42:42;;;;;;;2.20;1.80;;;26.20;32.30;;;;;;5018099;28;20431;-71
2021/03/29 10:45:12;;;;;;;4.50;2.40;;;28.70;29.80;;;;;;4999931;28;20530;-72
2021/03/29 10:47:41;;;;;;;3.73;2.10;;;29.00;29.20;;;;;;5017520;28;20463;-71
2021/03/29 10:50:10;;;;;;;3.87;2.00;;;29.20;29.10;;;;;;5016872;28;20446;-71
2021/03/29 10:52:38;;;;;;;4.60;2.50;;;28.70;28.70;;;;;;5017422;28;20436;-77
2021/03/29 10:55:31;;;;;;;4.30;2.27;;;23.70;32.30;;;;;;5035494;28;20470;-72
2021/03/29 10:57:58;;;;;;;3.60;2.00;;;25.30;32.70;;;;;;5019221;28;20473;-73
2021/03/29 11:00:26;;;;;;;3.20;2.20;;;26.00;30.70;;;;;;5016599;28;20530;-72
2021/03/29 11:02:54;;;;;;;5.17;2.73;;;25.40;32.70;;;;;;5035298;28;20447;-72
2021/03/29 11:05:22;;;;;;;3.30;2.07;;;26.80;31.10;;;;;;5035286;28;20438;-71
2021/03/29 11:07:50;;;;;;;3.93;2.00;;;27.10;31.70;;;;;;5017951;28;20788;-71
2021/03/29 11:10:21;;;;;;;5.32;2.30;;;26.20;31.90;;;;;;5017324;28;20516;-72
2021/03/29 11:12:49;;;;;;;2.40;2.10;;;25.50;32.30;;;;;;5036343;28;20180;-77
2021/03/29 11:15:17;;;;;;;5.33;1.80;;;25.30;31.20;;;;;;5018681;28;20459;-70
2021/03/29 11:17:45;;;;;;;4.23;3.10;;;23.80;33.30;;;;;;5038168;28;21016;-72
2021/03/29 11:20:14;;;;;;;3.67;2.03;;;23.60;33.30;;;;;;5039454;28;20434;-71
2021/03/29 11:22:43;;;;;;;6.10;2.20;;;25.40;32.20;;;;;;5035914;28;20423;-70
2021/03/29 11:25:12;;;;;;;5.77;2.90;;;25.30;31.60;;;;;;5036507;28;20545;-72
2021/03/29 11:27:40;;;;;;;2.23;1.80;;;24.40;34.30;;;;;;5017651;28;20475;-74
2021/03/29 11:30:10;;;;;;;2.93;1.60;;;25.20;32.40;;;;;;5017090;28;20508;-70
2021/03/29 11:32:38;;;;;;;3.50;1.77;;;25.70;31.30;;;;;;5017067;28;20499;-71
2021/03/29 11:35:07;;;;;;;2.90;1.83;;;26.50;30.10;;;;;;5000942;28;20451;-70
2021/03/29 11:37:37;;;;;;;2.80;1.50;;;26.20;30.30;;;;;;5034389;28;20419;-73
2021/03/29 11:40:10;;;;;;;3.43;2.30;;;25.00;32.00;;;;;;5016466;28;20561;-72
2021/03/29 11:42:39;;;;;;;6.40;2.60;;;24.10;31.80;;;;;;5017294;28;20759;-71
2021/03/29 11:45:09;;;;;;;5.30;1.80;;;23.70;34.50;;;;;;5034077;28;20471;-73
2021/03/29 11:47:39;;;;;;;2.90;1.50;;;25.30;33.40;;;;;;5016057;28;20909;-71
2021/03/29 11:50:11;;;;;;;4.03;1.70;;;26.40;30.40;;;;;;5034743;28;20466;-71
2021/03/29 11:52:41;;;;;;;3.13;2.03;;;26.50;30.00;;;;;;5016535;28;20450;-71
2021/03/29 11:55:33;;;;;;;3.90;1.80;;;26.30;29.20;;;;;;5036046;28;21008;-75
2021/03/29 11:58:01;;;;;;;2.20;1.50;;;25.60;29.90;;;;;;5020366;28;20435;-70
2021/03/29 12:00:32;;;;;;;7.40;1.80;;;26.60;29.80;;;;;;5037372;28;20852;-70
2021/03/29 12:03:06;;;;;;;2.20;1.60;;;26.20;29.10;;;;;;5020407;28;20434;-71
2021/03/29 12:05:37;;;;;;;2.77;1.97;;;26.70;29.70;;;;;;5020331;28;20522;-71
2021/03/29 12:08:16;;;;;;;2.10;1.43;;;25.60;29.90;;;;;;5004502;28;20467;-74
2021/03/29 12:13:33;;;;;;;2.60;1.27;;;24.50;31.30;;;;;;5019808;28;20443;-71
2021/03/29 12:16:05;;;;;;;3.20;1.70;;;27.30;29.90;;;;;;5035389;28;20536;-71
2021/03/29 12:18:38;;;;;;;2.97;2.10;;;27.40;28.60;;;;;;5037489;28;20442;-72
2021/03/29 12:21:08;;;;;;;6.57;2.17;;;27.70;28.20;;;;;;5019383;28;20443;-70
2021/03/29 12:23:40;;;;;;;4.03;1.90;;;28.10;28.20;;;;;;5026359;28;20510;-71
2021/03/29 12:26:09;;;;;;;2.90;2.03;;;27.60;28.20;;;;;;5018973;28;20428;-78
2021/03/29 12:28:40;;;;;;;4.20;2.40;;;24.80;29.80;;;;;;5036985;28;20442;-73
2021/03/29 12:31:08;;;;;;;2.80;2.60;;;25.40;30.50;;;;;;5034621;28;20470;-72
2021/03/29 12:33:36;;;;;;;4.50;2.37;;;25.60;30.30;;;;;;5036780;28;20432;-71
2021/03/29 12:36:05;;;;;;;4.03;1.70;;;24.40;30.40;;;;;;5037689;28;20439;-70
2021/03/29 12:38:36;;;;;;;5.17;2.20;;;24.40;31.70;;;;;;5039666;28;20436;-71
2021/03/29 12:41:09;;;;;;;2.00;1.80;;;23.90;31.70;;;;;;5026187;28;20493;-71
2021/03/29 12:43:40;;;;;;;3.70;2.23;;;24.10;33.10;;;;;;5044661;28;20463;-71
2021/03/29 12:46:08;;;;;;;5.43;2.87;;;22.70;33.60;;;;;;5042996;28;20467;-74
2021/03/29 12:48:38;;;;;;;3.27;2.30;;;23.20;33.70;;;;;;5040741;28;20442;-69
2021/03/29 12:51:07;;;;;;;4.77;2.00;;;22.70;34.40;;;;;;5020698;28;20428;-73
2021/03/29 12:53:36;;;;;;;5.23;2.20;;;23.10;35.10;;;;;;5023979;28;20435;-73
2021/03/29 12:56:06;;;;;;;2.87;2.40;;;23.50;34.50;;;;;;5024332;28;20553;-73
2021/03/29 12:58:35;;;;;;;3.43;1.80;;;22.50;34.90;;;;;;5043103;28;20436;-70
2021/03/29 13:01:06;;;;;;;2.30;1.73;;;22.40;36.00;;;;;;5023851;28;20471;-69
2021/03/29 13:03:39;;;;;;;3.10;1.93;;;22.10;36.30;;;;;;5026038;28;20431;-72
2021/03/29 13:06:12;;;;;;;3.77;2.30;;;21.70;37.10;;;;;;5041868;28;20435;-69
2021/03/29 13:08:41;;;;;;;5.03;2.40;;;21.30;36.90;;;;;;5008057;28;20431;-73
2021/03/29 13:11:26;;;;;;;3.37;2.27;;;21.20;37.20;;;;;;5023615;28;20454;-74
2021/03/29 13:14:20;;;;;;;4.87;2.50;;;22.00;36.90;;;;;;5042055;28;20428;-70
2021/03/29 13:16:47;;;;;;;2.87;2.20;;;21.10;37.00;;;;;;5021374;28;20509;-70
2021/03/29 13:19:15;;;;;;;4.37;2.63;;;21.00;37.50;;;;;;5020875;28;20470;-69
2021/03/29 13:24:40;;;;;;;3.00;2.30;;;20.50;37.50;;;;;;5041133;28;20467;-71
2021/03/29 13:27:08;;;;;;;3.10;2.13;;;20.60;38.00;;;;;;5023804;28;20462;-69
2021/03/29 13:29:35;;;;;;;6.20;2.83;;;21.30;37.90;;;;;;5025148;28;20502;-72